createdAt,value
2023-02-19T00:01:47.552Z,80.24
2023-02-19T00:04:20.386Z,80.45
2023-02-19T00:06:48.072Z,80.58
2023-02-19T00:09:17.399Z,80.88
2023-02-19T00:11:44.720Z,81.00
2023-02-19T00:14:16.301Z,80.92
2023-02-19T00:16:43.597Z,80.96
2023-02-19T00:19:16.432Z,81.33
2023-02-19T00:21:43.865Z,81.53
2023-02-19T00:24:12.540Z,81.69
2023-02-19T00:26:40.981Z,81.56
2023-02-19T00:29:09.574Z,81.60
2023-02-19T00:31:37.026Z,81.67
2023-02-19T00:34:06.451Z,81.45
2023-02-19T00:36:37.905Z,81.72
2023-02-19T00:39:07.150Z,81.90
2023-02-19T00:41:35.760Z,81.98
2023-02-19T00:44:05.591Z,82.33
2023-02-19T00:46:41.651Z,82.30
2023-02-19T00:49:16.031Z,82.50
2023-02-19T00:51:43.098Z,82.63
2023-02-19T00:54:10.842Z,82.61
2023-02-19T00:56:37.942Z,83.05
2023-02-19T00:59:05.003Z,83.25
2023-02-19T01:01:32.263Z,83.43
2023-02-19T01:03:59.335Z,83.34
2023-02-19T01:06:26.468Z,83.39
2023-02-19T01:08:53.676Z,83.54
2023-02-19T01:11:20.731Z,83.71
2023-02-19T01:13:48.154Z,83.91
2023-02-19T01:16:21.149Z,83.71
2023-02-19T01:18:48.834Z,83.81
2023-02-19T01:21:21.126Z,83.59
2023-02-19T01:23:50.041Z,83.83
2023-02-19T01:26:20.049Z,83.96
2023-02-19T01:28:48.500Z,83.97
2023-02-19T01:31:21.457Z,84.09
2023-02-19T01:33:52.120Z,84.15
2023-02-19T01:36:19.479Z,84.20
2023-02-19T01:38:46.648Z,84.33
2023-02-19T01:41:17.137Z,84.42
2023-02-19T01:44:03.948Z,84.76
2023-02-19T01:46:35.869Z,85.16
2023-02-19T01:49:09.119Z,85.27
2023-02-19T01:51:39.584Z,85.17
2023-02-19T01:54:11.437Z,85.14
2023-02-19T01:56:42.907Z,85.34
2023-02-19T01:59:10.703Z,85.79
2023-02-19T02:01:39.495Z,85.96
2023-02-19T02:04:11.175Z,86.36
2023-02-19T02:06:59.448Z,86.46
2023-02-19T02:09:47.843Z,86.67
2023-02-19T02:12:15.560Z,86.97
2023-02-19T02:14:48.233Z,87.33
2023-02-19T02:17:56.870Z,86.88
2023-02-19T02:21:02.562Z,86.86
2023-02-19T02:23:41.335Z,87.08
2023-02-19T02:26:25.573Z,86.85
2023-02-19T02:29:11.478Z,86.91
2023-02-19T02:31:43.682Z,86.87
2023-02-19T02:34:27.660Z,86.73
2023-02-19T02:36:57.617Z,86.63
2023-02-19T02:39:28.322Z,86.43
2023-02-19T02:42:17.342Z,86.50
2023-02-19T02:45:11.510Z,86.43
2023-02-19T02:47:55.379Z,86.58
2023-02-19T02:50:26.738Z,86.58
2023-02-19T02:53:18.896Z,86.54
2023-02-19T02:55:49.894Z,86.64
2023-02-19T02:58:18.242Z,86.34
2023-02-19T03:01:11.215Z,86.38
2023-02-19T03:03:41.775Z,86.48
2023-02-19T03:06:12.580Z,86.35
2023-02-19T03:09:00.456Z,86.75
2023-02-19T03:11:48.017Z,86.94
2023-02-19T03:15:02.650Z,87.14
2023-02-19T03:18:00.304Z,87.11
2023-02-19T03:20:28.329Z,86.75
2023-02-19T03:22:57.073Z,87.09
2023-02-19T03:25:46.597Z,87.09
2023-02-19T03:28:41.620Z,87.29
2023-02-19T03:31:15.894Z,87.71
2023-02-19T03:33:45.785Z,87.61
2023-02-19T03:36:19.184Z,87.61
2023-02-19T03:38:46.359Z,87.62
2023-02-19T03:41:26.589Z,87.49
2023-02-19T03:44:09.919Z,87.14
2023-02-19T03:46:51.317Z,86.75
2023-02-19T03:49:50.094Z,86.44
2023-02-19T03:52:54.301Z,86.28
2023-02-19T03:55:51.822Z,86.30
2023-02-19T03:58:50.263Z,86.02
2023-02-19T04:01:23.248Z,86.14
2023-02-19T04:04:35.539Z,86.16
2023-02-19T04:07:04.498Z,86.23
2023-02-19T04:09:43.049Z,86.29
2023-02-19T04:12:15.773Z,86.57
2023-02-19T04:14:47.432Z,86.60
2023-02-19T04:17:25.918Z,86.79
2023-02-19T04:19:54.196Z,87.15
2023-02-19T04:22:22.907Z,87.00
2023-02-19T04:24:53.676Z,87.20
2023-02-19T04:27:20.798Z,87.34
2023-02-19T04:29:48.375Z,87.53
2023-02-19T04:32:15.478Z,87.58
2023-02-19T04:34:42.567Z,87.72
2023-02-19T04:37:09.579Z,87.82
2023-02-19T04:39:36.790Z,87.92
2023-02-19T04:42:04.144Z,88.05
2023-02-19T04:44:31.159Z,88.15
2023-02-19T04:46:58.290Z,88.42
2023-02-19T04:49:25.278Z,88.33
2023-02-19T04:51:52.419Z,88.38
2023-02-19T04:54:19.392Z,88.65
2023-02-19T04:56:46.569Z,88.72
2023-02-19T04:59:13.844Z,88.67
2023-02-19T05:01:41.092Z,88.84
2023-02-19T05:04:08.318Z,88.98
2023-02-19T05:06:35.555Z,88.80
2023-02-19T05:09:02.668Z,88.94
2023-02-19T05:11:29.822Z,89.17
2023-02-19T05:13:57.073Z,89.23
2023-02-19T05:16:24.327Z,89.31
2023-02-19T05:18:51.397Z,89.62
2023-02-19T05:21:18.990Z,89.63
2023-02-19T05:23:46.155Z,89.74
2023-02-19T05:26:18.101Z,89.92
2023-02-19T05:28:47.570Z,89.71
2023-02-19T05:31:15.199Z,89.44
2023-02-19T05:33:44.318Z,89.35
2023-02-19T05:36:13.812Z,89.48
2023-02-19T05:38:42.020Z,89.55
2023-02-19T05:41:13.992Z,89.51
2023-02-19T05:43:42.360Z,89.59
2023-02-19T05:46:10.954Z,89.54
2023-02-19T05:48:38.184Z,89.55
2023-02-19T05:51:08.314Z,89.74
2023-02-19T05:53:35.696Z,89.95
2023-02-19T05:56:03.180Z,90.48
2023-02-19T05:58:30.555Z,91.26
2023-02-19T06:00:57.617Z,91.45
2023-02-19T06:03:24.734Z,91.22
2023-02-19T06:05:51.898Z,88.95
2023-02-19T06:08:19.010Z,85.83
2023-02-19T06:10:46.237Z,83.83
2023-02-19T06:13:13.283Z,81.20
2023-02-19T06:15:40.557Z,80.43
2023-02-19T06:18:07.538Z,77.07
2023-02-19T06:20:34.779Z,73.16
2023-02-19T06:23:01.903Z,71.13
2023-02-19T06:25:29.065Z,69.04
2023-02-19T06:27:56.138Z,66.45
2023-02-19T06:30:26.124Z,64.96
2023-02-19T06:32:54.397Z,63.72
2023-02-19T06:35:21.663Z,61.52
2023-02-19T06:37:49.688Z,58.73
2023-02-19T06:40:17.342Z,56.35
2023-02-19T06:42:44.600Z,56.57
2023-02-19T06:45:11.912Z,55.30
2023-02-19T06:47:38.988Z,54.04
2023-02-19T06:50:06.592Z,51.73
2023-02-19T06:52:33.581Z,53.49
2023-02-19T06:55:00.800Z,52.14
2023-02-19T06:57:27.850Z,53.10
2023-02-19T06:59:54.948Z,52.05
2023-02-19T07:02:22.019Z,50.46
2023-02-19T07:04:49.234Z,49.61
2023-02-19T07:07:16.373Z,49.16
2023-02-19T07:09:43.377Z,50.25
2023-02-19T07:12:10.593Z,50.71
2023-02-19T07:14:37.681Z,51.60
2023-02-19T07:17:06.920Z,52.65
2023-02-19T07:19:35.031Z,53.25
2023-02-19T07:22:02.098Z,52.77
2023-02-19T07:24:29.227Z,52.59
2023-02-19T07:26:56.369Z,51.33
2023-02-19T07:29:23.549Z,51.25
2023-02-19T07:31:50.768Z,50.98
2023-02-19T07:34:17.996Z,49.39
2023-02-19T07:36:45.155Z,49.33
2023-02-19T07:39:15.830Z,49.51
2023-02-19T07:41:43.141Z,50.72
2023-02-19T07:44:16.538Z,51.50
2023-02-19T07:46:44.302Z,52.27
2023-02-19T07:49:11.432Z,53.38
2023-02-19T07:51:40.078Z,55.76
2023-02-19T07:54:08.229Z,55.35
2023-02-19T07:56:35.424Z,56.70
2023-02-19T07:59:02.545Z,57.05
2023-02-19T08:01:48.421Z,57.48
2023-02-19T08:04:16.859Z,57.72
2023-02-19T08:06:44.216Z,58.01
2023-02-19T08:09:12.015Z,59.69
2023-02-19T08:11:57.735Z,61.36
2023-02-19T08:14:28.301Z,61.46
2023-02-19T08:16:55.974Z,61.64
2023-02-19T08:19:23.398Z,62.51
2023-02-19T08:21:50.866Z,63.68
2023-02-19T08:24:17.838Z,64.61
2023-02-19T08:26:45.103Z,65.17
2023-02-19T08:29:12.172Z,64.62
2023-02-19T08:31:39.633Z,64.49
2023-02-19T08:34:06.958Z,65.05
2023-02-19T08:36:34.001Z,65.43
2023-02-19T08:39:01.090Z,65.04
2023-02-19T08:41:28.315Z,64.10
2023-02-19T08:43:55.459Z,63.89
2023-02-19T08:46:22.964Z,64.45
2023-02-19T08:48:50.466Z,64.89
2023-02-19T08:51:17.526Z,64.27
2023-02-19T08:53:44.685Z,64.72
2023-02-19T08:56:15.133Z,64.97
2023-02-19T08:58:42.856Z,64.44
2023-02-19T09:01:12.705Z,64.85
2023-02-19T09:03:40.409Z,64.79
2023-02-19T09:06:08.267Z,63.93
2023-02-19T09:08:35.444Z,65.21
2023-02-19T09:11:04.706Z,64.59
2023-02-19T09:13:31.897Z,65.32
2023-02-19T09:15:59.275Z,64.29
2023-02-19T09:18:26.913Z,63.76
2023-02-19T09:20:54.069Z,63.45
2023-02-19T09:23:21.244Z,63.09
2023-02-19T09:25:48.271Z,61.78
2023-02-19T09:28:17.028Z,61.60
2023-02-19T09:30:44.155Z,61.67
2023-02-19T09:33:11.295Z,61.85
2023-02-19T09:35:41.222Z,61.53
2023-02-19T09:38:10.781Z,61.41
2023-02-19T09:40:39.449Z,60.89
2023-02-19T09:43:15.545Z,59.94
2023-02-19T09:45:43.095Z,59.94
2023-02-19T09:48:11.273Z,60.27
2023-02-19T09:50:42.819Z,61.58
2023-02-19T09:53:21.185Z,60.64
2023-02-19T09:55:48.735Z,60.33
2023-02-19T09:58:30.969Z,60.77
2023-02-19T10:01:01.778Z,60.92
2023-02-19T10:03:35.231Z,60.95
2023-02-19T10:06:11.178Z,60.58
2023-02-19T10:08:41.617Z,60.62
2023-02-19T10:11:13.228Z,61.33
2023-02-19T10:13:48.228Z,60.59
2023-02-19T10:16:24.526Z,59.77
2023-02-19T10:18:52.154Z,59.86
2023-02-19T10:21:22.946Z,60.00
2023-02-19T10:24:00.057Z,60.11
2023-02-19T10:26:27.729Z,61.09
2023-02-19T10:28:55.707Z,60.84
2023-02-19T10:31:25.968Z,60.24
2023-02-19T10:33:56.146Z,60.09
2023-02-19T10:36:34.195Z,60.26
2023-02-19T10:39:03.990Z,59.85
2023-02-19T10:41:31.727Z,58.90
2023-02-19T10:44:13.933Z,58.43
2023-02-19T10:46:47.423Z,60.13
2023-02-19T10:49:33.110Z,60.63
2023-02-19T10:52:20.197Z,59.98
2023-02-19T10:54:55.392Z,58.78
2023-02-19T10:57:34.276Z,57.32
2023-02-19T11:00:15.443Z,59.21
2023-02-19T11:02:46.050Z,58.51
2023-02-19T11:05:15.208Z,56.21
2023-02-19T11:07:49.636Z,56.47
2023-02-19T11:10:42.433Z,57.82
2023-02-19T11:13:16.901Z,58.71
2023-02-19T11:15:44.549Z,57.46
2023-02-19T11:18:14.537Z,56.83
2023-02-19T11:20:57.736Z,57.55
2023-02-19T11:23:30.977Z,54.86
2023-02-19T11:26:02.888Z,56.47
2023-02-19T11:28:34.592Z,55.46
2023-02-19T11:31:23.848Z,55.37
2023-02-19T11:33:54.414Z,54.88
2023-02-19T11:36:34.985Z,55.35
2023-02-19T11:39:17.065Z,54.67
2023-02-19T11:42:04.519Z,54.93
2023-02-19T11:45:04.808Z,53.46
2023-02-19T11:47:59.794Z,55.17
2023-02-19T11:50:55.748Z,53.09
2023-02-19T11:53:32.371Z,53.45
2023-02-19T11:56:09.906Z,54.46
2023-02-19T11:59:05.770Z,53.63
2023-02-19T12:01:54.332Z,55.84
2023-02-19T12:04:40.207Z,54.54
2023-02-19T12:07:48.832Z,55.10
2023-02-19T12:10:25.101Z,55.17
2023-02-19T12:13:23.686Z,56.44
2023-02-19T12:16:18.219Z,56.18
2023-02-19T12:18:54.043Z,57.51
2023-02-19T12:21:36.367Z,57.56
2023-02-19T12:24:15.918Z,58.48
2023-02-19T12:27:07.829Z,58.04
2023-02-19T12:30:03.313Z,58.25
2023-02-19T12:33:01.074Z,58.19
2023-02-19T12:35:54.218Z,58.67
2023-02-19T12:38:40.032Z,58.44
2023-02-19T12:41:16.201Z,59.07
2023-02-19T12:43:53.421Z,58.54
2023-02-19T12:46:28.358Z,59.20
2023-02-19T12:49:21.405Z,58.48
2023-02-19T12:52:16.577Z,59.37
2023-02-19T12:54:51.067Z,59.73
2023-02-19T12:57:26.120Z,59.92
2023-02-19T13:00:00.380Z,59.86
2023-02-19T13:03:20.966Z,60.28
2023-02-19T13:05:58.792Z,60.80
2023-02-19T13:09:07.228Z,60.33
2023-02-19T13:11:53.672Z,61.56
2023-02-19T13:14:43.711Z,61.40
2023-02-19T13:17:20.633Z,60.58
2023-02-19T13:19:50.954Z,60.09
2023-02-19T13:22:58.225Z,60.98
2023-02-19T13:25:52.180Z,62.50
2023-02-19T13:28:31.330Z,61.78
2023-02-19T13:31:32.545Z,61.63
2023-02-19T13:34:05.657Z,60.94
2023-02-19T13:36:36.495Z,62.07
2023-02-19T13:39:07.469Z,61.91
2023-02-19T13:41:41.752Z,62.32
2023-02-19T13:44:19.209Z,63.17
2023-02-19T13:46:48.880Z,63.00
2023-02-19T13:49:42.395Z,63.31
2023-02-19T13:52:33.631Z,62.88
2023-02-19T13:55:40.747Z,63.31
2023-02-19T13:58:33.362Z,63.40
2023-02-19T14:01:01.552Z,62.71
2023-02-19T14:03:48.533Z,63.64
2023-02-19T14:06:15.864Z,64.68
2023-02-19T14:08:51.553Z,64.34
2023-02-19T14:11:41.577Z,65.37
2023-02-19T14:14:34.447Z,65.70
2023-02-19T14:17:35.095Z,66.21
2023-02-19T14:20:05.256Z,65.94
2023-02-19T14:22:48.919Z,67.43
2023-02-19T14:25:31.207Z,66.29
2023-02-19T14:28:25.506Z,66.70
2023-02-19T14:30:57.390Z,65.98
2023-02-19T14:33:49.644Z,66.41
2023-02-19T14:36:44.313Z,66.83
2023-02-19T14:39:21.467Z,67.87
2023-02-19T14:41:54.813Z,67.03
2023-02-19T14:44:38.176Z,66.45
2023-02-19T14:47:22.031Z,66.62
2023-02-19T14:50:01.290Z,67.75
2023-02-19T14:52:32.881Z,67.37
2023-02-19T14:55:00.090Z,67.50
2023-02-19T14:57:36.073Z,67.43
2023-02-19T15:00:21.955Z,67.82
2023-02-19T15:02:51.717Z,68.71
2023-02-19T15:05:24.796Z,68.18
2023-02-19T15:07:55.364Z,68.84
2023-02-19T15:10:23.083Z,68.61
2023-02-19T15:12:57.849Z,68.81
2023-02-19T15:15:29.444Z,68.89
2023-02-19T15:17:59.281Z,70.09
2023-02-19T15:20:31.049Z,70.08
2023-02-19T15:22:59.763Z,69.88
2023-02-19T15:25:39.368Z,70.05
2023-02-19T15:28:20.834Z,70.18
2023-02-19T15:31:00.035Z,70.19
2023-02-19T15:33:28.698Z,70.44
2023-02-19T15:36:03.305Z,70.37
2023-02-19T15:38:31.798Z,70.42
2023-02-19T15:41:00.122Z,70.51
2023-02-19T15:43:51.431Z,71.29
2023-02-19T15:46:22.550Z,70.92
2023-02-19T15:48:55.695Z,71.49
2023-02-19T15:51:32.106Z,71.71
2023-02-19T15:54:08.000Z,72.00
2023-02-19T15:56:38.521Z,71.96
2023-02-19T15:59:36.719Z,72.66
2023-02-19T16:02:05.113Z,73.18
2023-02-19T16:04:34.720Z,73.11
2023-02-19T16:07:03.997Z,73.34
2023-02-19T16:09:33.687Z,73.64
2023-02-19T16:12:02.385Z,73.99
2023-02-19T16:14:37.617Z,74.20
2023-02-19T16:17:10.911Z,74.73
2023-02-19T16:19:44.206Z,74.98
2023-02-19T16:22:24.564Z,75.02
2023-02-19T16:24:55.533Z,75.53
2023-02-19T16:27:41.934Z,76.09
2023-02-19T16:30:18.367Z,75.98
2023-02-19T16:32:47.113Z,76.07
2023-02-19T16:35:37.226Z,76.54
2023-02-19T16:38:14.352Z,76.38
2023-02-19T16:40:54.565Z,76.46
2023-02-19T16:43:31.758Z,76.69
2023-02-19T16:46:00.848Z,77.04
2023-02-19T16:48:29.123Z,77.68
2023-02-19T16:50:56.884Z,77.71
2023-02-19T16:53:25.416Z,77.76
2023-02-19T16:55:53.229Z,77.84
2023-02-19T16:58:22.078Z,77.78
2023-02-19T17:01:01.936Z,78.10
2023-02-19T17:03:29.866Z,78.29
2023-02-19T17:05:58.368Z,78.28
2023-02-19T17:08:40.111Z,78.52
2023-02-19T17:11:15.853Z,78.99
2023-02-19T17:13:46.955Z,79.19
2023-02-19T17:16:30.393Z,79.25
2023-02-19T17:19:01.392Z,79.05
2023-02-19T17:21:32.307Z,79.17
2023-02-19T17:24:00.890Z,79.21
2023-02-19T17:26:31.208Z,79.33
2023-02-19T17:29:01.538Z,79.43
2023-02-19T17:31:30.606Z,78.98
2023-02-19T17:34:00.691Z,78.92
2023-02-19T17:36:31.932Z,79.13
2023-02-19T17:39:02.882Z,79.35
2023-02-19T17:41:31.622Z,79.47
2023-02-19T17:44:00.480Z,79.49
2023-02-19T17:46:29.044Z,79.62
2023-02-19T17:48:58.181Z,79.27
2023-02-19T17:51:26.949Z,79.63
2023-02-19T17:53:55.680Z,79.77
2023-02-19T17:56:27.097Z,79.89
2023-02-19T17:58:58.004Z,80.16
2023-02-19T18:01:27.877Z,80.40
2023-02-19T18:03:56.725Z,80.26
2023-02-19T18:06:25.113Z,80.43
2023-02-19T18:08:55.426Z,80.53
2023-02-19T18:11:25.752Z,80.69
2023-02-19T18:13:55.237Z,80.66
2023-02-19T18:16:23.725Z,80.80
2023-02-19T18:18:51.980Z,80.75
2023-02-19T18:21:21.183Z,80.91
2023-02-19T18:23:50.276Z,81.26
2023-02-19T18:26:21.680Z,81.27
2023-02-19T18:28:49.926Z,81.52
2023-02-19T18:31:17.571Z,81.57
2023-02-19T18:33:45.154Z,81.48
2023-02-19T18:36:13.718Z,81.48
2023-02-19T18:38:43.034Z,81.70
2023-02-19T18:41:14.847Z,81.60
2023-02-19T18:43:42.637Z,81.95
2023-02-19T18:46:10.790Z,81.99
2023-02-19T18:48:39.252Z,81.79
2023-02-19T18:51:11.129Z,81.98
2023-02-19T18:53:38.621Z,81.81
2023-02-19T18:56:09.177Z,81.88
2023-02-19T18:58:36.520Z,81.95
2023-02-19T19:01:03.753Z,82.22
2023-02-19T19:03:32.154Z,82.07
2023-02-19T19:05:59.755Z,82.34
2023-02-19T19:08:29.143Z,82.43
2023-02-19T19:10:57.654Z,82.41
2023-02-19T19:13:25.672Z,82.60
2023-02-19T19:15:52.764Z,82.44
2023-02-19T19:18:19.976Z,82.41
2023-02-19T19:20:47.313Z,82.45
2023-02-19T19:23:14.712Z,82.33
2023-02-19T19:25:41.775Z,82.43
2023-02-19T19:28:09.197Z,82.55
2023-02-19T19:30:36.653Z,82.34
2023-02-19T19:33:04.338Z,82.55
2023-02-19T19:35:35.007Z,82.51
2023-02-19T19:38:02.622Z,82.80
2023-02-19T19:40:30.785Z,82.72
2023-02-19T19:42:58.080Z,83.07
2023-02-19T19:45:25.388Z,83.03
2023-02-19T19:47:53.274Z,83.12
2023-02-19T19:50:21.590Z,82.72
2023-02-19T19:52:49.907Z,82.81
2023-02-19T19:55:17.812Z,82.84
2023-02-19T19:57:45.194Z,83.05
2023-02-19T20:00:16.365Z,82.93
2023-02-19T20:02:47.001Z,82.86
2023-02-19T20:05:17.012Z,83.10
2023-02-19T20:07:45.991Z,83.01
2023-02-19T20:10:16.417Z,83.16
2023-02-19T20:12:44.530Z,83.41
2023-02-19T20:15:13.566Z,83.60
2023-02-19T20:17:41.184Z,83.71
2023-02-19T20:20:09.998Z,83.79
2023-02-19T20:22:39.497Z,84.03
2023-02-19T20:25:07.263Z,84.15
2023-02-19T20:27:34.635Z,83.97
2023-02-19T20:30:02.370Z,84.10
2023-02-19T20:32:29.520Z,84.16
2023-02-19T20:34:56.815Z,84.27
2023-02-19T20:37:23.858Z,84.35
2023-02-19T20:39:51.123Z,84.21
2023-02-19T20:42:19.126Z,84.43
2023-02-19T20:44:46.346Z,84.33
2023-02-19T20:47:13.812Z,84.55
2023-02-19T20:49:46.529Z,84.74
2023-02-19T20:52:17.355Z,84.72
2023-02-19T20:54:45.176Z,84.53
2023-02-19T20:57:14.362Z,84.64
2023-02-19T20:59:41.825Z,84.86
2023-02-19T21:02:16.853Z,84.82
2023-02-19T21:04:44.279Z,84.79
2023-02-19T21:07:11.384Z,85.30
2023-02-19T21:09:38.771Z,85.52
2023-02-19T21:12:06.180Z,85.70
2023-02-19T21:14:33.642Z,85.98
2023-02-19T21:17:01.428Z,86.07
2023-02-19T21:19:29.441Z,86.29
2023-02-19T21:21:59.955Z,86.70
2023-02-19T21:24:28.633Z,86.76
2023-02-19T21:26:57.124Z,86.85
2023-02-19T21:29:27.320Z,86.83
2023-02-19T21:31:58.309Z,86.67
2023-02-19T21:34:29.444Z,87.03
2023-02-19T21:36:57.856Z,87.11
2023-02-19T21:39:27.778Z,87.26
2023-02-19T21:41:55.932Z,87.11
2023-02-19T21:44:23.605Z,87.25
2023-02-19T21:46:51.367Z,87.44
2023-02-19T21:49:19.328Z,87.41
2023-02-19T21:51:49.079Z,87.55
2023-02-19T21:54:21.307Z,87.88
2023-02-19T21:56:49.018Z,87.90
2023-02-19T21:59:16.141Z,88.01
2023-02-19T22:01:43.703Z,88.19
2023-02-19T22:04:14.635Z,88.09
2023-02-19T22:06:42.373Z,88.13
2023-02-19T22:09:10.342Z,88.12
2023-02-19T22:11:37.685Z,88.00
2023-02-19T22:14:04.920Z,88.39
2023-02-19T22:16:32.466Z,88.30
2023-02-19T22:19:01.841Z,88.05
2023-02-19T22:21:34.550Z,88.42
2023-02-19T22:24:03.198Z,88.61
2023-02-19T22:26:34.137Z,88.79
2023-02-19T22:29:07.304Z,89.02
2023-02-19T22:31:35.852Z,88.96
2023-02-19T22:34:03.152Z,88.99
2023-02-19T22:36:32.025Z,88.87
2023-02-19T22:38:59.589Z,88.71
2023-02-19T22:41:27.235Z,88.59
2023-02-19T22:43:55.827Z,88.45
2023-02-19T22:46:25.634Z,88.39
2023-02-19T22:48:52.962Z,88.53
2023-02-19T22:51:22.514Z,88.52
2023-02-19T22:53:52.065Z,88.69
2023-02-19T22:56:23.450Z,88.52
2023-02-19T22:58:51.447Z,88.66
2023-02-19T23:01:19.117Z,88.60
2023-02-19T23:03:56.750Z,88.63
2023-02-19T23:06:27.403Z,88.60
2023-02-19T23:08:56.820Z,89.01
2023-02-19T23:11:27.079Z,89.04
2023-02-19T23:13:56.057Z,88.83
2023-02-19T23:16:23.273Z,89.13
2023-02-19T23:18:50.798Z,89.12
2023-02-19T23:21:18.984Z,89.23
2023-02-19T23:23:48.224Z,89.30
2023-02-19T23:26:16.015Z,89.62
2023-02-19T23:28:43.800Z,89.42
2023-02-19T23:31:11.608Z,89.38
2023-02-19T23:33:39.008Z,89.45
2023-02-19T23:36:07.039Z,89.73
2023-02-19T23:38:34.193Z,89.72
2023-02-19T23:41:01.456Z,89.60
2023-02-19T23:43:28.578Z,89.69
2023-02-19T23:45:55.835Z,89.96
2023-02-19T23:48:23.066Z,89.68
2023-02-19T23:50:50.126Z,89.96
2023-02-19T23:53:17.440Z,90.13
2023-02-19T23:55:44.504Z,90.15
2023-02-19T23:58:11.707Z,90.09
